createdAt,value
2017-10-07T00:02:14.801Z,4.73
2017-10-07T00:04:40.789Z,5.20
2017-10-07T00:07:06.734Z,3.93
2017-10-07T00:09:32.724Z,4.77
2017-10-07T00:11:58.665Z,4.67
2017-10-07T00:14:24.603Z,4.20
2017-10-07T00:16:50.588Z,5.00
2017-10-07T00:19:16.540Z,4.73
2017-10-07T00:21:42.509Z,4.83
2017-10-07T00:24:08.494Z,4.30
2017-10-07T00:26:35.213Z,4.20
2017-10-07T00:29:01.188Z,4.60
2017-10-07T00:31:27.168Z,4.87
2017-10-07T00:33:53.108Z,4.17
2017-10-07T00:36:19.098Z,4.30
2017-10-07T00:38:45.040Z,3.80
2017-10-07T00:41:11.721Z,4.10
2017-10-07T00:43:37.693Z,4.97
2017-10-07T00:46:04.369Z,4.40
2017-10-07T00:48:30.356Z,3.93
2017-10-07T00:50:56.332Z,3.67
2017-10-07T00:53:22.286Z,4.30
2017-10-07T00:55:48.255Z,3.57
2017-10-07T00:58:14.193Z,4.03
2017-10-07T01:00:40.173Z,4.47
2017-10-07T01:03:06.128Z,3.97
2017-10-07T01:05:32.064Z,3.63
2017-10-07T01:07:58.053Z,3.40
2017-10-07T01:10:24.728Z,4.40
2017-10-07T01:12:50.670Z,4.50
2017-10-07T01:15:16.622Z,4.07
2017-10-07T01:17:42.556Z,4.10
2017-10-07T01:20:08.516Z,4.57
2017-10-07T01:22:35.199Z,4.53
2017-10-07T01:25:01.162Z,3.80
2017-10-07T01:27:27.134Z,4.07
2017-10-07T01:29:53.909Z,3.67
2017-10-07T01:32:19.860Z,3.23
2017-10-07T01:34:45.807Z,3.57
2017-10-07T01:37:11.802Z,3.63
2017-10-07T01:39:38.473Z,3.50
2017-10-07T01:42:04.414Z,3.47
2017-10-07T01:44:31.147Z,3.10
2017-10-07T01:46:57.106Z,3.30
2017-10-07T01:49:23.074Z,3.70
2017-10-07T01:51:49.078Z,3.83
2017-10-07T01:54:15.031Z,3.30
2017-10-07T01:56:41.017Z,4.30
2017-10-07T01:59:07.701Z,3.10
2017-10-07T02:01:33.658Z,4.20
2017-10-07T02:04:00.402Z,4.53
2017-10-07T02:06:26.351Z,3.23
2017-10-07T02:08:53.044Z,3.70
2017-10-07T02:11:19.033Z,2.80
2017-10-07T02:13:45.022Z,3.60
2017-10-07T02:16:10.974Z,4.37
2017-10-07T02:18:36.962Z,4.90
2017-10-07T02:21:02.905Z,3.97
2017-10-07T02:23:28.890Z,3.83
2017-10-07T02:25:54.833Z,3.57
2017-10-07T02:28:21.542Z,4.47
2017-10-07T02:30:47.530Z,4.10
2017-10-07T02:33:13.493Z,3.33
2017-10-07T02:35:40.214Z,3.40
2017-10-07T02:38:06.909Z,3.30
2017-10-07T02:40:32.913Z,4.00
2017-10-07T02:42:58.878Z,4.17
2017-10-07T02:45:24.826Z,3.20
2017-10-07T02:47:50.826Z,4.23
2017-10-07T02:50:16.814Z,4.87
2017-10-07T02:52:42.810Z,3.60
2017-10-07T02:55:08.755Z,3.97
2017-10-07T02:57:34.706Z,5.93
2017-10-07T03:00:01.430Z,4.93
2017-10-07T03:02:28.114Z,4.97
2017-10-07T03:04:54.075Z,4.03
2017-10-07T03:07:20.766Z,5.20
2017-10-07T03:09:46.802Z,4.20
2017-10-07T03:12:13.550Z,5.90
2017-10-07T03:14:39.498Z,5.03
2017-10-07T03:17:05.483Z,5.40
2017-10-07T03:19:31.458Z,6.90
2017-10-07T03:21:57.473Z,3.93
2017-10-07T03:24:23.463Z,4.73
2017-10-07T03:26:50.141Z,4.73
2017-10-07T03:29:16.081Z,4.57
2017-10-07T03:31:42.074Z,4.30
2017-10-07T03:34:08.026Z,4.50
2017-10-07T03:36:34.777Z,3.97
2017-10-07T03:39:00.794Z,3.70
2017-10-07T03:41:26.859Z,4.80
2017-10-07T03:43:53.650Z,5.10
2017-10-07T03:46:19.598Z,4.57
2017-10-07T03:48:46.346Z,3.70
2017-10-07T03:51:12.298Z,3.87
2017-10-07T03:53:38.285Z,3.97
2017-10-07T03:56:04.231Z,3.53
2017-10-07T03:58:30.178Z,4.07
2017-10-07T04:00:56.150Z,4.40
2017-10-07T04:03:22.126Z,4.67
2017-10-07T04:05:48.070Z,4.53
2017-10-07T04:08:14.059Z,4.97
2017-10-07T04:10:40.011Z,5.00
2017-10-07T04:13:05.961Z,4.40
2017-10-07T04:15:31.918Z,5.10
2017-10-07T04:17:58.638Z,4.30
2017-10-07T04:20:25.334Z,4.47
2017-10-07T04:22:52.063Z,4.80
2017-10-07T04:25:18.005Z,4.17
2017-10-07T04:27:43.967Z,4.90
2017-10-07T04:30:09.974Z,4.43
2017-10-07T04:32:35.922Z,5.57
2017-10-07T04:35:01.915Z,3.70
2017-10-07T04:37:28.665Z,5.37
2017-10-07T04:39:54.609Z,4.23
2017-10-07T04:42:20.584Z,4.80
2017-10-07T04:44:46.561Z,5.23
2017-10-07T04:47:13.329Z,4.37
2017-10-07T04:49:39.334Z,5.43
2017-10-07T04:52:05.320Z,4.70
2017-10-07T04:54:31.278Z,5.80
2017-10-07T04:56:57.247Z,7.53
2017-10-07T04:59:23.252Z,5.13
2017-10-07T05:01:49.193Z,5.37
2017-10-07T05:04:15.165Z,5.50
2017-10-07T05:06:41.167Z,5.80
2017-10-07T05:09:07.133Z,6.37
2017-10-07T05:11:33.078Z,7.93
2017-10-07T05:13:59.049Z,7.57
2017-10-07T05:16:25.022Z,8.37
2017-10-07T05:18:50.962Z,7.70
2017-10-07T05:21:16.970Z,8.30
2017-10-07T05:23:42.932Z,7.50
2017-10-07T05:26:08.913Z,7.30
2017-10-07T05:28:35.665Z,7.27
2017-10-07T05:31:01.617Z,6.07
2017-10-07T05:33:27.594Z,6.30
2017-10-07T05:35:53.566Z,7.30
2017-10-07T05:38:20.249Z,5.77
2017-10-07T05:40:46.239Z,6.43
2017-10-07T05:43:12.203Z,7.07
2017-10-07T05:45:38.282Z,6.43
2017-10-07T05:48:04.261Z,8.60
2017-10-07T05:50:30.206Z,6.90
2017-10-07T05:52:56.212Z,5.70
2017-10-07T05:55:22.161Z,6.27
2017-10-07T05:57:48.894Z,5.60
2017-10-07T06:00:14.922Z,5.47
2017-10-07T06:02:40.919Z,5.27
2017-10-07T06:05:06.907Z,6.00
2017-10-07T06:07:33.594Z,5.50
2017-10-07T06:09:59.557Z,6.20
2017-10-07T06:12:25.530Z,5.70
2017-10-07T06:14:52.305Z,6.10
2017-10-07T06:17:18.292Z,7.47
2017-10-07T06:19:44.993Z,6.50
2017-10-07T06:22:10.942Z,7.20
2017-10-07T06:24:36.928Z,8.00
2017-10-07T06:27:03.694Z,6.40
2017-10-07T06:29:29.677Z,7.10
2017-10-07T06:31:55.630Z,7.30
2017-10-07T06:34:21.618Z,7.60
2017-10-07T06:36:47.625Z,5.10
2017-10-07T06:39:13.611Z,6.40
2017-10-07T06:41:39.602Z,4.97
2017-10-07T06:44:06.285Z,4.57
2017-10-07T06:46:32.315Z,5.10
2017-10-07T06:48:58.279Z,4.80
2017-10-07T06:51:24.256Z,3.77
2017-10-07T06:53:50.990Z,4.10
2017-10-07T06:56:17.058Z,4.17
2017-10-07T06:58:43.035Z,3.47
2017-10-07T07:01:09.087Z,3.33
2017-10-07T07:03:35.046Z,3.53
2017-10-07T07:06:00.994Z,3.63
2017-10-07T07:08:26.990Z,3.30
2017-10-07T07:10:52.973Z,2.83
2017-10-07T07:13:19.046Z,3.03
2017-10-07T07:15:45.737Z,3.50
2017-10-07T07:18:11.699Z,3.87
2017-10-07T07:20:37.670Z,3.53
2017-10-07T07:23:03.669Z,3.60
2017-10-07T07:25:29.621Z,4.43
2017-10-07T07:27:55.570Z,5.80
2017-10-07T07:30:21.563Z,3.27
2017-10-07T07:32:47.507Z,6.90
2017-10-07T07:35:13.501Z,3.57
2017-10-07T07:37:39.471Z,4.27
2017-10-07T07:40:05.459Z,4.30
2017-10-07T07:42:31.470Z,4.20
2017-10-07T07:44:58.181Z,4.17
2017-10-07T07:47:24.925Z,3.53
2017-10-07T07:49:51.645Z,5.57
2017-10-07T07:52:18.366Z,3.03
2017-10-07T07:54:45.224Z,3.03
2017-10-07T07:57:11.220Z,3.03
2017-10-07T07:59:37.222Z,2.97
2017-10-07T08:02:03.898Z,2.50
2017-10-07T08:04:29.870Z,2.30
2017-10-07T08:06:55.822Z,2.47
2017-10-07T08:09:21.878Z,2.63
2017-10-07T08:11:47.889Z,2.80
2017-10-07T08:14:13.922Z,2.60
2017-10-07T08:16:39.959Z,2.47
2017-10-07T08:19:05.974Z,2.87
2017-10-07T08:21:31.974Z,2.73
2017-10-07T08:23:57.998Z,2.80
2017-10-07T08:26:24.009Z,2.40
2017-10-07T08:28:50.013Z,2.60
2017-10-07T08:31:16.021Z,2.30
2017-10-07T08:33:42.042Z,3.07
2017-10-07T08:36:08.077Z,2.90
2017-10-07T08:38:34.869Z,2.07
2017-10-07T08:41:00.922Z,2.50
2017-10-07T08:43:26.906Z,2.43
2017-10-07T08:45:53.602Z,2.93
2017-10-07T08:48:19.549Z,2.37
2017-10-07T08:50:46.295Z,1.87
2017-10-07T08:53:12.263Z,1.97
2017-10-07T08:55:45.259Z,1.80
2017-10-07T08:58:12.015Z,1.83
2017-10-07T09:00:37.958Z,1.67
2017-10-07T09:03:03.937Z,2.20
2017-10-07T09:05:29.891Z,2.40
2017-10-07T09:07:55.846Z,2.10
2017-10-07T09:10:21.857Z,2.57
2017-10-07T09:12:47.826Z,1.77
2017-10-07T09:15:13.823Z,1.70
2017-10-07T09:17:39.772Z,2.30
2017-10-07T09:20:05.754Z,2.80
2017-10-07T09:22:31.742Z,1.97
2017-10-07T09:24:57.706Z,2.40
2017-10-07T09:27:23.651Z,2.30
2017-10-07T09:29:49.618Z,1.80
2017-10-07T09:32:15.602Z,1.90
2017-10-07T09:34:42.333Z,1.87
2017-10-07T09:37:09.022Z,1.73
2017-10-07T09:39:34.985Z,1.70
2017-10-07T09:42:00.998Z,1.53
2017-10-07T09:44:26.992Z,1.60
2017-10-07T09:46:53.682Z,1.87
2017-10-07T09:49:19.666Z,1.80
2017-10-07T09:51:45.654Z,1.70
2017-10-07T09:54:11.603Z,2.50
2017-10-07T09:56:37.584Z,1.90
2017-10-07T09:59:03.562Z,1.60
2017-10-07T10:01:29.514Z,2.00
2017-10-07T10:03:55.495Z,1.83
2017-10-07T10:06:21.442Z,1.40
2017-10-07T10:08:47.421Z,1.83
2017-10-07T10:11:13.397Z,2.00
2017-10-07T10:13:40.126Z,1.73
2017-10-07T10:16:06.079Z,2.23
2017-10-07T10:18:32.034Z,2.20
2017-10-07T10:20:58.774Z,2.10
2017-10-07T10:23:24.719Z,2.30
2017-10-07T10:25:50.719Z,1.80
2017-10-07T10:28:16.649Z,2.10
2017-10-07T10:30:42.642Z,1.97
2017-10-07T10:33:08.614Z,2.27
2017-10-07T10:35:34.565Z,2.50
2017-10-07T10:38:00.559Z,2.87
2017-10-07T10:40:26.540Z,2.20
2017-10-07T10:42:52.517Z,2.70
2017-10-07T10:45:18.465Z,2.50
2017-10-07T10:47:44.430Z,2.57
2017-10-07T10:50:10.372Z,2.97
2017-10-07T10:52:36.350Z,2.80
2017-10-07T10:55:03.074Z,2.53
2017-10-07T10:57:29.083Z,2.50
2017-10-07T10:59:55.062Z,1.90
2017-10-07T11:02:20.997Z,1.63
2017-10-07T11:04:46.970Z,1.63
2017-10-07T11:07:12.914Z,1.60
2017-10-07T11:09:38.914Z,1.03
2017-10-07T11:12:04.852Z,1.50
2017-10-07T11:14:31.545Z,1.30
2017-10-07T11:16:57.537Z,1.17
2017-10-07T11:19:23.494Z,1.57
2017-10-07T11:21:50.181Z,1.63
2017-10-07T11:24:16.166Z,1.43
2017-10-07T11:26:42.115Z,1.40
2017-10-07T11:29:08.845Z,1.23
2017-10-07T11:31:35.538Z,2.03
2017-10-07T11:34:01.486Z,1.60
2017-10-07T11:36:28.254Z,1.47
2017-10-07T11:38:56.198Z,1.87
2017-10-07T11:41:22.194Z,1.67
2017-10-07T11:43:48.133Z,1.40
2017-10-07T11:46:14.114Z,1.50
2017-10-07T11:48:40.101Z,2.10
2017-10-07T11:51:06.790Z,1.77
2017-10-07T11:53:32.747Z,2.57
2017-10-07T11:55:58.750Z,2.00
2017-10-07T11:58:25.441Z,1.53
2017-10-07T12:00:51.430Z,2.53
